sensor_id;sensor_type;location;lat;lon;timestamp;temperature;humidity
23271;DHT22;11804;51.118;17.058;2023-04-07T00:01:30;5.40;99.90
23271;DHT22;11804;51.118;17.058;2023-04-07T00:03:58;5.50;99.90
23271;DHT22;11804;51.118;17.058;2023-04-07T00:06:25;5.50;99.90
23271;DHT22;11804;51.118;17.058;2023-04-07T00:08:53;5.50;99.90
23271;DHT22;11804;51.118;17.058;2023-04-07T00:11:20;5.50;99.90
23271;DHT22;11804;51.118;17.058;2023-04-07T00:13:48;5.50;99.90
23271;DHT22;11804;51.118;17.058;2023-04-07T00:16:16;5.40;99.90
23271;DHT22;11804;51.118;17.058;2023-04-07T00:18:43;5.50;99.90
23271;DHT22;11804;51.118;17.058;2023-04-07T00:21:11;5.50;99.90
23271;DHT22;11804;51.118;17.058;2023-04-07T00:23:38;5.50;99.90
23271;DHT22;11804;51.118;17.058;2023-04-07T00:26:06;5.50;99.90
23271;DHT22;11804;51.118;17.058;2023-04-07T00:28:35;5.40;99.90
23271;DHT22;11804;51.118;17.058;2023-04-07T00:31:03;5.40;99.90
23271;DHT22;11804;51.118;17.058;2023-04-07T00:33:31;5.40;99.90
23271;DHT22;11804;51.118;17.058;2023-04-07T00:35:58;5.40;99.90
23271;DHT22;11804;51.118;17.058;2023-04-07T00:38:26;5.40;99.90
23271;DHT22;11804;51.118;17.058;2023-04-07T00:40:58;5.40;99.90
23271;DHT22;11804;51.118;17.058;2023-04-07T00:43:26;5.30;99.90
23271;DHT22;11804;51.118;17.058;2023-04-07T00:45:54;5.30;99.90
23271;DHT22;11804;51.118;17.058;2023-04-07T00:48:22;5.20;99.90
23271;DHT22;11804;51.118;17.058;2023-04-07T00:50:50;5.20;99.90
23271;DHT22;11804;51.118;17.058;2023-04-07T00:53:19;5.00;99.90
23271;DHT22;11804;51.118;17.058;2023-04-07T00:55:47;5.00;99.90
23271;DHT22;11804;51.118;17.058;2023-04-07T00:58:14;5.00;99.90
23271;DHT22;11804;51.118;17.058;2023-04-07T01:01:29;4.90;99.90
23271;DHT22;11804;51.118;17.058;2023-04-07T01:03:24;5.00;99.90
23271;DHT22;11804;51.118;17.058;2023-04-07T01:05:57;4.90;99.90
23271;DHT22;11804;51.118;17.058;2023-04-07T01:11:24;4.90;99.90
23271;DHT22;11804;51.118;17.058;2023-04-07T01:13:53;4.90;99.90
23271;DHT22;11804;51.118;17.058;2023-04-07T01:16:38;4.80;99.90
23271;DHT22;11804;51.118;17.058;2023-04-07T01:21:52;4.80;99.90
23271;DHT22;11804;51.118;17.058;2023-04-07T01:29:56;4.80;99.90
23271;DHT22;11804;51.118;17.058;2023-04-07T01:32:26;4.70;99.90
23271;DHT22;11804;51.118;17.058;2023-04-07T01:34:55;4.60;99.90
23271;DHT22;11804;51.118;17.058;2023-04-07T01:37:25;4.60;99.90
23271;DHT22;11804;51.118;17.058;2023-04-07T01:39:53;4.60;99.90
23271;DHT22;11804;51.118;17.058;2023-04-07T01:42:21;4.60;99.90
23271;DHT22;11804;51.118;17.058;2023-04-07T01:44:49;4.50;99.90
23271;DHT22;11804;51.118;17.058;2023-04-07T01:47:18;4.40;99.90
23271;DHT22;11804;51.118;17.058;2023-04-07T01:49:46;4.40;99.90
23271;DHT22;11804;51.118;17.058;2023-04-07T01:52:14;4.40;99.90
23271;DHT22;11804;51.118;17.058;2023-04-07T01:54:43;4.50;99.90
23271;DHT22;11804;51.118;17.058;2023-04-07T01:57:11;4.50;99.90
23271;DHT22;11804;51.118;17.058;2023-04-07T01:59:38;4.50;99.90
23271;DHT22;11804;51.118;17.058;2023-04-07T02:02:06;4.40;99.90
23271;DHT22;11804;51.118;17.058;2023-04-07T02:04:48;4.40;99.90
23271;DHT22;11804;51.118;17.058;2023-04-07T02:07:20;4.30;99.90
23271;DHT22;11804;51.118;17.058;2023-04-07T02:09:49;4.40;99.90
23271;DHT22;11804;51.118;17.058;2023-04-07T02:12:18;4.40;99.90
23271;DHT22;11804;51.118;17.058;2023-04-07T02:14:47;4.40;99.90
23271;DHT22;11804;51.118;17.058;2023-04-07T02:17:15;4.40;99.90
23271;DHT22;11804;51.118;17.058;2023-04-07T02:19:44;4.40;99.90
23271;DHT22;11804;51.118;17.058;2023-04-07T02:22:14;4.40;99.90
23271;DHT22;11804;51.118;17.058;2023-04-07T02:24:42;4.40;99.90
23271;DHT22;11804;51.118;17.058;2023-04-07T02:27:10;4.40;99.90
23271;DHT22;11804;51.118;17.058;2023-04-07T02:29:37;4.40;99.90
23271;DHT22;11804;51.118;17.058;2023-04-07T02:32:05;4.30;99.90
23271;DHT22;11804;51.118;17.058;2023-04-07T02:34:33;4.30;99.90
23271;DHT22;11804;51.118;17.058;2023-04-07T02:37:00;4.20;99.90
23271;DHT22;11804;51.118;17.058;2023-04-07T02:39:29;4.20;99.90
23271;DHT22;11804;51.118;17.058;2023-04-07T02:41:57;4.20;99.90
23271;DHT22;11804;51.118;17.058;2023-04-07T02:44:24;4.20;99.90
23271;DHT22;11804;51.118;17.058;2023-04-07T02:46:52;4.20;99.90
23271;DHT22;11804;51.118;17.058;2023-04-07T02:49:19;4.20;99.90
23271;DHT22;11804;51.118;17.058;2023-04-07T02:51:47;4.20;99.90
23271;DHT22;11804;51.118;17.058;2023-04-07T02:54:14;4.10;99.90
23271;DHT22;11804;51.118;17.058;2023-04-07T02:56:42;4.10;99.90
23271;DHT22;11804;51.118;17.058;2023-04-07T02:59:10;4.10;99.90
23271;DHT22;11804;51.118;17.058;2023-04-07T03:01:37;4.10;99.90
23271;DHT22;11804;51.118;17.058;2023-04-07T03:04:06;4.10;99.90
23271;DHT22;11804;51.118;17.058;2023-04-07T03:06:36;4.10;99.90
23271;DHT22;11804;51.118;17.058;2023-04-07T03:09:04;4.10;99.90
23271;DHT22;11804;51.118;17.058;2023-04-07T03:11:32;4.20;99.90
23271;DHT22;11804;51.118;17.058;2023-04-07T03:14:00;4.20;99.90
23271;DHT22;11804;51.118;17.058;2023-04-07T03:16:27;4.20;99.90
23271;DHT22;11804;51.118;17.058;2023-04-07T03:18:55;4.10;99.90
23271;DHT22;11804;51.118;17.058;2023-04-07T03:21:23;4.20;99.90
23271;DHT22;11804;51.118;17.058;2023-04-07T03:23:50;4.20;99.90
23271;DHT22;11804;51.118;17.058;2023-04-07T03:26:18;4.20;99.90
23271;DHT22;11804;51.118;17.058;2023-04-07T03:28:45;4.30;99.90
23271;DHT22;11804;51.118;17.058;2023-04-07T03:31:13;4.20;99.90
23271;DHT22;11804;51.118;17.058;2023-04-07T03:33:40;4.20;99.90
23271;DHT22;11804;51.118;17.058;2023-04-07T03:36:08;4.20;99.90
23271;DHT22;11804;51.118;17.058;2023-04-07T03:38:36;4.30;99.90
23271;DHT22;11804;51.118;17.058;2023-04-07T03:41:04;4.30;99.90
23271;DHT22;11804;51.118;17.058;2023-04-07T03:43:31;4.30;99.90
23271;DHT22;11804;51.118;17.058;2023-04-07T03:45:59;4.30;99.90
23271;DHT22;11804;51.118;17.058;2023-04-07T03:48:27;4.30;99.90
23271;DHT22;11804;51.118;17.058;2023-04-07T03:50:54;4.30;99.90
23271;DHT22;11804;51.118;17.058;2023-04-07T03:53:22;4.20;99.90
23271;DHT22;11804;51.118;17.058;2023-04-07T03:55:49;4.20;99.90
23271;DHT22;11804;51.118;17.058;2023-04-07T03:58:18;4.20;99.90
23271;DHT22;11804;51.118;17.058;2023-04-07T04:00:45;4.30;99.90
23271;DHT22;11804;51.118;17.058;2023-04-07T04:03:13;4.30;99.90
23271;DHT22;11804;51.118;17.058;2023-04-07T04:05:41;4.30;99.90
23271;DHT22;11804;51.118;17.058;2023-04-07T04:08:08;4.30;99.90
23271;DHT22;11804;51.118;17.058;2023-04-07T04:10:36;4.20;99.90
23271;DHT22;11804;51.118;17.058;2023-04-07T04:13:04;4.20;99.90
23271;DHT22;11804;51.118;17.058;2023-04-07T04:15:33;4.20;99.90
23271;DHT22;11804;51.118;17.058;2023-04-07T04:18:01;4.20;99.90
23271;DHT22;11804;51.118;17.058;2023-04-07T04:20:28;4.20;99.90
23271;DHT22;11804;51.118;17.058;2023-04-07T04:22:56;4.20;99.90
23271;DHT22;11804;51.118;17.058;2023-04-07T04:25:24;4.20;99.90
23271;DHT22;11804;51.118;17.058;2023-04-07T04:27:51;4.10;99.90
23271;DHT22;11804;51.118;17.058;2023-04-07T04:30:19;4.00;99.90
23271;DHT22;11804;51.118;17.058;2023-04-07T04:32:47;4.00;99.90
23271;DHT22;11804;51.118;17.058;2023-04-07T04:35:15;4.00;99.90
23271;DHT22;11804;51.118;17.058;2023-04-07T04:37:43;4.00;99.90
23271;DHT22;11804;51.118;17.058;2023-04-07T04:40:12;4.00;99.90
23271;DHT22;11804;51.118;17.058;2023-04-07T04:42:40;4.10;99.90
23271;DHT22;11804;51.118;17.058;2023-04-07T04:45:08;4.10;99.90
23271;DHT22;11804;51.118;17.058;2023-04-07T04:47:36;4.10;99.90
23271;DHT22;11804;51.118;17.058;2023-04-07T04:50:06;4.10;99.90
23271;DHT22;11804;51.118;17.058;2023-04-07T04:52:33;4.10;99.90
23271;DHT22;11804;51.118;17.058;2023-04-07T04:55:01;4.10;99.90
23271;DHT22;11804;51.118;17.058;2023-04-07T04:57:29;4.10;99.90
23271;DHT22;11804;51.118;17.058;2023-04-07T04:59:57;4.10;99.90
23271;DHT22;11804;51.118;17.058;2023-04-07T05:02:24;4.00;99.90
23271;DHT22;11804;51.118;17.058;2023-04-07T05:04:52;4.00;99.90
23271;DHT22;11804;51.118;17.058;2023-04-07T05:07:19;4.10;99.90
23271;DHT22;11804;51.118;17.058;2023-04-07T05:09:47;4.00;99.90
23271;DHT22;11804;51.118;17.058;2023-04-07T05:12:15;4.00;99.90
23271;DHT22;11804;51.118;17.058;2023-04-07T05:14:42;4.00;99.90
23271;DHT22;11804;51.118;17.058;2023-04-07T05:17:10;4.00;99.90
23271;DHT22;11804;51.118;17.058;2023-04-07T05:19:38;3.90;99.90
23271;DHT22;11804;51.118;17.058;2023-04-07T05:22:05;3.90;99.90
23271;DHT22;11804;51.118;17.058;2023-04-07T05:24:33;4.00;99.90
23271;DHT22;11804;51.118;17.058;2023-04-07T05:27:01;4.00;99.90
23271;DHT22;11804;51.118;17.058;2023-04-07T05:29:28;4.00;99.90
23271;DHT22;11804;51.118;17.058;2023-04-07T05:31:56;4.00;99.90
23271;DHT22;11804;51.118;17.058;2023-04-07T05:34:24;4.10;99.90
23271;DHT22;11804;51.118;17.058;2023-04-07T05:36:52;4.00;99.90
23271;DHT22;11804;51.118;17.058;2023-04-07T05:39:20;4.10;99.90
23271;DHT22;11804;51.118;17.058;2023-04-07T05:41:47;4.00;99.90
23271;DHT22;11804;51.118;17.058;2023-04-07T05:44:15;4.00;99.90
23271;DHT22;11804;51.118;17.058;2023-04-07T05:46:44;4.00;99.90
23271;DHT22;11804;51.118;17.058;2023-04-07T05:49:11;4.00;99.90
23271;DHT22;11804;51.118;17.058;2023-04-07T05:51:39;4.00;99.90
23271;DHT22;11804;51.118;17.058;2023-04-07T05:54:07;3.90;99.90
23271;DHT22;11804;51.118;17.058;2023-04-07T05:56:34;4.00;99.90
23271;DHT22;11804;51.118;17.058;2023-04-07T05:59:02;4.00;99.90
23271;DHT22;11804;51.118;17.058;2023-04-07T06:01:29;4.00;99.90
23271;DHT22;11804;51.118;17.058;2023-04-07T06:03:57;4.00;99.90
23271;DHT22;11804;51.118;17.058;2023-04-07T06:06:25;4.00;99.90
23271;DHT22;11804;51.118;17.058;2023-04-07T06:08:53;4.10;99.90
23271;DHT22;11804;51.118;17.058;2023-04-07T06:11:21;4.10;99.90
23271;DHT22;11804;51.118;17.058;2023-04-07T06:13:48;4.10;99.90
23271;DHT22;11804;51.118;17.058;2023-04-07T06:16:16;4.10;99.90
23271;DHT22;11804;51.118;17.058;2023-04-07T06:18:44;4.10;99.90
23271;DHT22;11804;51.118;17.058;2023-04-07T06:21:12;4.10;99.90
23271;DHT22;11804;51.118;17.058;2023-04-07T06:23:39;4.10;99.90
23271;DHT22;11804;51.118;17.058;2023-04-07T06:26:11;4.10;99.90
23271;DHT22;11804;51.118;17.058;2023-04-07T06:28:39;4.10;99.90
23271;DHT22;11804;51.118;17.058;2023-04-07T06:31:07;4.00;99.90
23271;DHT22;11804;51.118;17.058;2023-04-07T06:33:35;4.10;99.90
23271;DHT22;11804;51.118;17.058;2023-04-07T06:36:03;4.10;99.90
23271;DHT22;11804;51.118;17.058;2023-04-07T06:38:30;4.10;99.90
23271;DHT22;11804;51.118;17.058;2023-04-07T06:40:58;4.10;99.90
23271;DHT22;11804;51.118;17.058;2023-04-07T06:43:25;4.10;99.90
23271;DHT22;11804;51.118;17.058;2023-04-07T06:45:53;4.20;99.90
23271;DHT22;11804;51.118;17.058;2023-04-07T06:48:21;4.20;99.90
23271;DHT22;11804;51.118;17.058;2023-04-07T06:50:49;4.30;99.90
23271;DHT22;11804;51.118;17.058;2023-04-07T06:53:17;4.20;99.90
23271;DHT22;11804;51.118;17.058;2023-04-07T06:55:45;4.20;99.90
23271;DHT22;11804;51.118;17.058;2023-04-07T06:58:13;4.20;99.90
23271;DHT22;11804;51.118;17.058;2023-04-07T07:00:41;4.30;99.90
23271;DHT22;11804;51.118;17.058;2023-04-07T07:03:08;4.40;99.90
23271;DHT22;11804;51.118;17.058;2023-04-07T07:05:36;4.50;99.90
23271;DHT22;11804;51.118;17.058;2023-04-07T07:08:04;4.50;99.90
23271;DHT22;11804;51.118;17.058;2023-04-07T07:10:31;4.50;99.90
23271;DHT22;11804;51.118;17.058;2023-04-07T07:12:59;4.50;99.90
23271;DHT22;11804;51.118;17.058;2023-04-07T07:15:27;4.50;99.90
23271;DHT22;11804;51.118;17.058;2023-04-07T07:17:54;4.50;99.90
23271;DHT22;11804;51.118;17.058;2023-04-07T07:20:22;4.50;99.90
23271;DHT22;11804;51.118;17.058;2023-04-07T07:22:51;4.40;99.90
23271;DHT22;11804;51.118;17.058;2023-04-07T07:25:19;4.40;99.90
23271;DHT22;11804;51.118;17.058;2023-04-07T07:27:46;4.40;99.90
23271;DHT22;11804;51.118;17.058;2023-04-07T07:30:16;4.40;99.90
23271;DHT22;11804;51.118;17.058;2023-04-07T07:32:43;4.40;99.90
23271;DHT22;11804;51.118;17.058;2023-04-07T07:35:11;4.40;99.90
23271;DHT22;11804;51.118;17.058;2023-04-07T07:37:39;4.40;99.90
23271;DHT22;11804;51.118;17.058;2023-04-07T07:40:07;4.40;99.90
23271;DHT22;11804;51.118;17.058;2023-04-07T07:42:34;4.50;99.90
23271;DHT22;11804;51.118;17.058;2023-04-07T07:45:04;4.40;99.90
23271;DHT22;11804;51.118;17.058;2023-04-07T07:47:32;4.40;99.90
23271;DHT22;11804;51.118;17.058;2023-04-07T07:50:02;4.40;99.90
23271;DHT22;11804;51.118;17.058;2023-04-07T07:52:30;4.40;99.90
23271;DHT22;11804;51.118;17.058;2023-04-07T07:54:57;4.40;99.90
23271;DHT22;11804;51.118;17.058;2023-04-07T07:57:25;4.50;99.90
23271;DHT22;11804;51.118;17.058;2023-04-07T07:59:52;4.50;99.90
23271;DHT22;11804;51.118;17.058;2023-04-07T08:02:20;4.50;99.90
23271;DHT22;11804;51.118;17.058;2023-04-07T08:04:48;4.40;99.90
23271;DHT22;11804;51.118;17.058;2023-04-07T08:07:15;4.50;99.90
23271;DHT22;11804;51.118;17.058;2023-04-07T08:09:43;4.50;99.90
23271;DHT22;11804;51.118;17.058;2023-04-07T08:12:11;4.60;99.90
23271;DHT22;11804;51.118;17.058;2023-04-07T08:14:38;4.60;99.90
23271;DHT22;11804;51.118;17.058;2023-04-07T08:17:06;4.60;99.90
23271;DHT22;11804;51.118;17.058;2023-04-07T08:19:33;4.70;99.90
23271;DHT22;11804;51.118;17.058;2023-04-07T08:22:01;4.70;99.90
23271;DHT22;11804;51.118;17.058;2023-04-07T08:24:29;4.80;99.90
23271;DHT22;11804;51.118;17.058;2023-04-07T08:26:56;4.70;99.90
23271;DHT22;11804;51.118;17.058;2023-04-07T08:29:24;4.70;99.90
23271;DHT22;11804;51.118;17.058;2023-04-07T08:31:52;4.70;99.90
23271;DHT22;11804;51.118;17.058;2023-04-07T08:34:19;4.80;99.90
23271;DHT22;11804;51.118;17.058;2023-04-07T08:36:47;4.90;99.90
23271;DHT22;11804;51.118;17.058;2023-04-07T08:39:14;4.90;99.90
23271;DHT22;11804;51.118;17.058;2023-04-07T08:41:42;5.00;99.90
23271;DHT22;11804;51.118;17.058;2023-04-07T08:44:11;4.90;99.90
23271;DHT22;11804;51.118;17.058;2023-04-07T08:46:40;5.00;99.90
23271;DHT22;11804;51.118;17.058;2023-04-07T08:49:10;5.20;99.90
23271;DHT22;11804;51.118;17.058;2023-04-07T08:51:44;5.30;99.90
23271;DHT22;11804;51.118;17.058;2023-04-07T08:54:17;5.50;99.90
23271;DHT22;11804;51.118;17.058;2023-04-07T08:56:47;5.40;99.90
23271;DHT22;11804;51.118;17.058;2023-04-07T08:59:15;5.50;99.90
23271;DHT22;11804;51.118;17.058;2023-04-07T09:01:51;5.40;99.90
23271;DHT22;11804;51.118;17.058;2023-04-07T09:04:19;5.50;99.90
23271;DHT22;11804;51.118;17.058;2023-04-07T09:06:49;5.60;99.90
23271;DHT22;11804;51.118;17.058;2023-04-07T09:09:16;5.60;99.90
23271;DHT22;11804;51.118;17.058;2023-04-07T09:11:44;5.70;99.90
23271;DHT22;11804;51.118;17.058;2023-04-07T09:14:12;5.60;99.90
23271;DHT22;11804;51.118;17.058;2023-04-07T09:16:41;5.60;99.90
23271;DHT22;11804;51.118;17.058;2023-04-07T09:19:08;5.40;99.90
23271;DHT22;11804;51.118;17.058;2023-04-07T09:21:51;5.50;99.90
23271;DHT22;11804;51.118;17.058;2023-04-07T09:24:22;5.50;99.90
23271;DHT22;11804;51.118;17.058;2023-04-07T09:27:10;5.40;99.90
23271;DHT22;11804;51.118;17.058;2023-04-07T09:29:39;5.50;99.90
23271;DHT22;11804;51.118;17.058;2023-04-07T09:32:08;5.50;99.90
23271;DHT22;11804;51.118;17.058;2023-04-07T09:34:38;5.50;99.90
23271;DHT22;11804;51.118;17.058;2023-04-07T09:37:07;5.40;99.90
23271;DHT22;11804;51.118;17.058;2023-04-07T09:39:57;5.50;99.90
23271;DHT22;11804;51.118;17.058;2023-04-07T09:42:11;5.50;99.90
23271;DHT22;11804;51.118;17.058;2023-04-07T09:44:39;5.50;99.90
23271;DHT22;11804;51.118;17.058;2023-04-07T09:47:07;5.60;99.90
23271;DHT22;11804;51.118;17.058;2023-04-07T09:49:49;5.60;99.90
23271;DHT22;11804;51.118;17.058;2023-04-07T09:52:25;5.70;99.90
23271;DHT22;11804;51.118;17.058;2023-04-07T09:54:54;5.70;99.90
23271;DHT22;11804;51.118;17.058;2023-04-07T09:57:23;5.60;99.90
23271;DHT22;11804;51.118;17.058;2023-04-07T09:59:51;5.60;99.90
23271;DHT22;11804;51.118;17.058;2023-04-07T10:02:21;5.60;99.90
23271;DHT22;11804;51.118;17.058;2023-04-07T10:04:49;5.50;99.90
23271;DHT22;11804;51.118;17.058;2023-04-07T10:07:17;5.40;99.90
23271;DHT22;11804;51.118;17.058;2023-04-07T10:09:44;5.40;99.90
23271;DHT22;11804;51.118;17.058;2023-04-07T10:12:13;5.30;99.90
23271;DHT22;11804;51.118;17.058;2023-04-07T10:14:42;5.30;99.90
23271;DHT22;11804;51.118;17.058;2023-04-07T10:17:13;5.30;99.90
23271;DHT22;11804;51.118;17.058;2023-04-07T10:19:45;5.30;99.90
23271;DHT22;11804;51.118;17.058;2023-04-07T10:22:14;5.50;99.90
23271;DHT22;11804;51.118;17.058;2023-04-07T10:27:33;5.40;99.90
23271;DHT22;11804;51.118;17.058;2023-04-07T10:30:04;5.50;99.90
23271;DHT22;11804;51.118;17.058;2023-04-07T10:32:44;5.60;99.90
23271;DHT22;11804;51.118;17.058;2023-04-07T10:35:09;5.60;99.90
23271;DHT22;11804;51.118;17.058;2023-04-07T10:37:37;5.70;99.90
23271;DHT22;11804;51.118;17.058;2023-04-07T10:42:53;5.80;99.90
23271;DHT22;11804;51.118;17.058;2023-04-07T10:48:18;5.60;99.90
23271;DHT22;11804;51.118;17.058;2023-04-07T10:51:33;5.50;99.90
23271;DHT22;11804;51.118;17.058;2023-04-07T10:53:17;5.40;99.90
23271;DHT22;11804;51.118;17.058;2023-04-07T10:55:45;5.40;99.90
23271;DHT22;11804;51.118;17.058;2023-04-07T11:03:51;5.40;99.90
23271;DHT22;11804;51.118;17.058;2023-04-07T11:06:12;5.40;99.90
23271;DHT22;11804;51.118;17.058;2023-04-07T11:08:41;5.40;99.90
23271;DHT22;11804;51.118;17.058;2023-04-07T11:11:12;5.40;99.90
23271;DHT22;11804;51.118;17.058;2023-04-07T11:13:44;5.40;99.90
23271;DHT22;11804;51.118;17.058;2023-04-07T11:16:14;5.50;99.90
23271;DHT22;11804;51.118;17.058;2023-04-07T11:18:43;5.50;99.90
23271;DHT22;11804;51.118;17.058;2023-04-07T11:21:16;5.50;99.90
23271;DHT22;11804;51.118;17.058;2023-04-07T11:23:43;5.50;99.90
23271;DHT22;11804;51.118;17.058;2023-04-07T11:26:13;5.50;99.90
23271;DHT22;11804;51.118;17.058;2023-04-07T11:28:53;5.60;99.90
23271;DHT22;11804;51.118;17.058;2023-04-07T11:31:23;5.60;99.90
23271;DHT22;11804;51.118;17.058;2023-04-07T11:36:37;5.60;99.90
23271;DHT22;11804;51.118;17.058;2023-04-07T11:39:01;5.60;99.90
23271;DHT22;11804;51.118;17.058;2023-04-07T11:41:31;5.70;99.90
23271;DHT22;11804;51.118;17.058;2023-04-07T11:44:10;5.60;99.90
23271;DHT22;11804;51.118;17.058;2023-04-07T11:46:56;5.60;99.90
23271;DHT22;11804;51.118;17.058;2023-04-07T11:49:26;5.60;99.90
23271;DHT22;11804;51.118;17.058;2023-04-07T11:54:45;5.70;99.90
23271;DHT22;11804;51.118;17.058;2023-04-07T11:57:28;5.70;99.90
23271;DHT22;11804;51.118;17.058;2023-04-07T12:00:06;5.70;99.90
23271;DHT22;11804;51.118;17.058;2023-04-07T12:02:34;5.70;99.90
23271;DHT22;11804;51.118;17.058;2023-04-07T12:05:05;5.80;99.90
23271;DHT22;11804;51.118;17.058;2023-04-07T12:07:50;5.80;99.90
23271;DHT22;11804;51.118;17.058;2023-04-07T12:10:21;5.80;99.90
23271;DHT22;11804;51.118;17.058;2023-04-07T12:12:51;5.70;99.90
23271;DHT22;11804;51.118;17.058;2023-04-07T12:15:19;5.70;99.90
23271;DHT22;11804;51.118;17.058;2023-04-07T12:17:48;5.70;99.90
23271;DHT22;11804;51.118;17.058;2023-04-07T12:20:16;5.80;99.90
23271;DHT22;11804;51.118;17.058;2023-04-07T12:22:44;5.80;99.90
23271;DHT22;11804;51.118;17.058;2023-04-07T12:25:12;5.70;99.90
23271;DHT22;11804;51.118;17.058;2023-04-07T12:27:39;5.70;99.90
23271;DHT22;11804;51.118;17.058;2023-04-07T12:30:08;5.70;99.90
23271;DHT22;11804;51.118;17.058;2023-04-07T12:32:36;5.80;99.90
23271;DHT22;11804;51.118;17.058;2023-04-07T12:35:05;5.80;99.90
23271;DHT22;11804;51.118;17.058;2023-04-07T12:37:32;5.90;99.90
23271;DHT22;11804;51.118;17.058;2023-04-07T12:40:00;5.90;99.90
23271;DHT22;11804;51.118;17.058;2023-04-07T12:42:28;6.00;99.90
23271;DHT22;11804;51.118;17.058;2023-04-07T12:44:56;6.00;99.90
23271;DHT22;11804;51.118;17.058;2023-04-07T12:47:23;5.80;99.90
23271;DHT22;11804;51.118;17.058;2023-04-07T12:49:51;5.70;99.90
23271;DHT22;11804;51.118;17.058;2023-04-07T12:52:18;5.60;99.90
23271;DHT22;11804;51.118;17.058;2023-04-07T12:54:46;5.60;99.90
23271;DHT22;11804;51.118;17.058;2023-04-07T12:57:14;5.70;99.90
23271;DHT22;11804;51.118;17.058;2023-04-07T12:59:42;5.80;99.90
23271;DHT22;11804;51.118;17.058;2023-04-07T13:02:10;5.90;99.90
23271;DHT22;11804;51.118;17.058;2023-04-07T13:04:39;5.90;99.90
23271;DHT22;11804;51.118;17.058;2023-04-07T13:07:09;5.90;99.90
23271;DHT22;11804;51.118;17.058;2023-04-07T13:09:36;5.90;99.90
23271;DHT22;11804;51.118;17.058;2023-04-07T13:12:04;5.90;99.90
23271;DHT22;11804;51.118;17.058;2023-04-07T13:14:32;5.80;99.90
23271;DHT22;11804;51.118;17.058;2023-04-07T13:16:59;5.80;99.90
23271;DHT22;11804;51.118;17.058;2023-04-07T13:19:28;5.80;99.90
23271;DHT22;11804;51.118;17.058;2023-04-07T13:21:57;5.90;99.90
23271;DHT22;11804;51.118;17.058;2023-04-07T13:24:24;5.90;99.90
23271;DHT22;11804;51.118;17.058;2023-04-07T13:26:53;6.00;99.90
23271;DHT22;11804;51.118;17.058;2023-04-07T13:29:21;5.90;99.90
23271;DHT22;11804;51.118;17.058;2023-04-07T13:31:49;6.00;99.90
23271;DHT22;11804;51.118;17.058;2023-04-07T13:34:17;5.90;99.90
23271;DHT22;11804;51.118;17.058;2023-04-07T13:36:44;5.90;99.90
23271;DHT22;11804;51.118;17.058;2023-04-07T13:39:12;5.80;99.90
23271;DHT22;11804;51.118;17.058;2023-04-07T13:41:39;5.80;99.90
23271;DHT22;11804;51.118;17.058;2023-04-07T13:44:07;5.80;99.90
23271;DHT22;11804;51.118;17.058;2023-04-07T13:46:34;5.80;99.90
23271;DHT22;11804;51.118;17.058;2023-04-07T13:49:02;5.80;99.90
23271;DHT22;11804;51.118;17.058;2023-04-07T13:51:30;5.80;99.90
23271;DHT22;11804;51.118;17.058;2023-04-07T13:53:58;5.90;99.90
23271;DHT22;11804;51.118;17.058;2023-04-07T13:56:26;5.90;99.90
23271;DHT22;11804;51.118;17.058;2023-04-07T13:58:54;5.90;99.90
23271;DHT22;11804;51.118;17.058;2023-04-07T14:01:23;5.90;99.90
23271;DHT22;11804;51.118;17.058;2023-04-07T14:03:51;5.90;99.90
23271;DHT22;11804;51.118;17.058;2023-04-07T14:06:22;5.90;99.90
23271;DHT22;11804;51.118;17.058;2023-04-07T14:08:50;5.80;99.90
23271;DHT22;11804;51.118;17.058;2023-04-07T14:11:18;5.80;99.90
23271;DHT22;11804;51.118;17.058;2023-04-07T14:13:47;5.80;99.90
23271;DHT22;11804;51.118;17.058;2023-04-07T14:16:16;5.80;99.90
23271;DHT22;11804;51.118;17.058;2023-04-07T14:18:44;5.80;99.90
23271;DHT22;11804;51.118;17.058;2023-04-07T14:21:12;5.80;99.90
23271;DHT22;11804;51.118;17.058;2023-04-07T14:23:40;5.80;99.90
23271;DHT22;11804;51.118;17.058;2023-04-07T14:26:12;5.80;99.90
23271;DHT22;11804;51.118;17.058;2023-04-07T14:28:40;5.80;99.90
23271;DHT22;11804;51.118;17.058;2023-04-07T14:31:12;5.80;99.90
23271;DHT22;11804;51.118;17.058;2023-04-07T14:33:44;5.70;99.90
23271;DHT22;11804;51.118;17.058;2023-04-07T14:36:14;5.60;99.90
23271;DHT22;11804;51.118;17.058;2023-04-07T14:38:45;5.60;99.90
23271;DHT22;11804;51.118;17.058;2023-04-07T14:41:13;5.60;99.90
23271;DHT22;11804;51.118;17.058;2023-04-07T14:43:40;5.60;99.90
23271;DHT22;11804;51.118;17.058;2023-04-07T14:46:09;5.60;99.90
23271;DHT22;11804;51.118;17.058;2023-04-07T14:48:37;5.60;99.90
23271;DHT22;11804;51.118;17.058;2023-04-07T14:51:10;5.60;99.90
23271;DHT22;11804;51.118;17.058;2023-04-07T14:53:39;5.50;99.90
23271;DHT22;11804;51.118;17.058;2023-04-07T14:56:11;5.50;99.90
23271;DHT22;11804;51.118;17.058;2023-04-07T14:58:39;5.50;99.90
23271;DHT22;11804;51.118;17.058;2023-04-07T15:01:07;5.60;99.90
23271;DHT22;11804;51.118;17.058;2023-04-07T15:03:34;5.60;99.90
23271;DHT22;11804;51.118;17.058;2023-04-07T15:06:10;5.60;99.90
23271;DHT22;11804;51.118;17.058;2023-04-07T15:08:39;5.70;99.90
23271;DHT22;11804;51.118;17.058;2023-04-07T15:11:07;5.70;99.90
23271;DHT22;11804;51.118;17.058;2023-04-07T15:13:35;5.70;99.90
23271;DHT22;11804;51.118;17.058;2023-04-07T15:16:08;5.70;99.90
23271;DHT22;11804;51.118;17.058;2023-04-07T15:18:38;5.60;99.90
23271;DHT22;11804;51.118;17.058;2023-04-07T15:21:07;5.70;99.90
23271;DHT22;11804;51.118;17.058;2023-04-07T15:23:36;5.70;99.90
23271;DHT22;11804;51.118;17.058;2023-04-07T15:26:05;5.70;99.90
23271;DHT22;11804;51.118;17.058;2023-04-07T15:28:33;5.70;99.90
23271;DHT22;11804;51.118;17.058;2023-04-07T15:31:01;5.70;99.90
23271;DHT22;11804;51.118;17.058;2023-04-07T15:33:29;5.70;99.90
23271;DHT22;11804;51.118;17.058;2023-04-07T15:35:56;5.70;99.90
23271;DHT22;11804;51.118;17.058;2023-04-07T15:38:26;5.70;99.90
23271;DHT22;11804;51.118;17.058;2023-04-07T15:40:54;5.70;99.90
23271;DHT22;11804;51.118;17.058;2023-04-07T15:43:22;5.70;99.90
23271;DHT22;11804;51.118;17.058;2023-04-07T15:45:50;5.60;99.90
23271;DHT22;11804;51.118;17.058;2023-04-07T15:48:17;5.60;99.90
23271;DHT22;11804;51.118;17.058;2023-04-07T15:50:45;5.60;99.90
23271;DHT22;11804;51.118;17.058;2023-04-07T15:53:12;5.50;99.90
23271;DHT22;11804;51.118;17.058;2023-04-07T15:55:40;5.60;99.90
23271;DHT22;11804;51.118;17.058;2023-04-07T15:58:09;5.60;99.90
23271;DHT22;11804;51.118;17.058;2023-04-07T16:00:37;5.60;99.90
23271;DHT22;11804;51.118;17.058;2023-04-07T16:03:05;5.50;99.90
23271;DHT22;11804;51.118;17.058;2023-04-07T16:05:33;5.50;99.90
23271;DHT22;11804;51.118;17.058;2023-04-07T16:08:01;5.50;99.90
23271;DHT22;11804;51.118;17.058;2023-04-07T16:10:28;5.50;99.90